Pagrindinis puslapis
METAR-TAF:

METAR-TAF

Oro uostai :

Palena, Čilė

platuma: 43-36-41S, ilguma: 071-48-19W, Aukštis: 277 m

Dabartinis oras

Ataskaita buvo paskelbta 1 valandą ir 40 minutes, ne 11:00 UTC
Vėjas 11 kt iš Pietvakarių, svyruoja nuo Pietų ir Vakarų
Temperatūra 14°C
Drėgmė 63%
Slėgis 1009 hPa
Matomumas 10 km arba daugiau

METAR: SCAP 231100Z AUTO 23011KT 190V270 9999 ////// 14/07 Q1009

Laikas: 09:40 (12:40 UTC)


TAF: trūkstamas

Orai ataskaitas ir orų prognozės (METAR, TAF).

turimą stotys yra geltonos ir raudonos taškus žemėlapyje.

Perkelti pele per norėdami pamatyti stoties vardą.

Tada spustelėkite, norėdami matyti oro stebėjimo ir prognozės.

Norėdami pakeisti žemėlapį: spustelėkite ant žalios mygtukų su juodo kryžiaus žemyn,; žalią mygtuką su brūkšneliu, jei norite nutolinti; arba žalių rodyklių gretimoms žemėlapius.


METAR-TAF: